Main page
METAR-TAF:

METAR-TAF

Airports :

Hasvik Airport

Hasvik, Norway

latitude: 70-29N, longitude: 022-09E, elevation: 10 m

Current weather observation

The report was made 2 hours and 49 minutes ago, at 07:20 UTC
Wind 10 kt from the East/Northeast, varying between Northeast and East
Temperature 4°C
Humidity 65%
Pressure 1023 hPa
Visibility 10 km or more
Scattered clouds at a height of 1800 ft
Broken clouds at a height of 4000 ft
showers in vicinity

METAR: ENHK 220720Z 07010KT 040V100 9999 VCSH SCT018 BKN040 04/M02 Q1023

Time: 12:09 (10:09 UTC)


TAF: missing

Weather observations and forecasts of more than 4000 airports (METAR and TAF reports).

The available stations are represented by yellow and red dots on the map.

Hover mouse over dot to see the name of the station.

Then click to see weather observations and forecasts.

To change the map : click on the green buttons with a black cross to zoom in, on the green button with a dash to zoom out, or on the green arrows for adjacent maps.


METAR-TAF: